createdAt,value
2017-02-27T00:00:14.683Z,58.17
2017-02-27T00:06:25.408Z,58.37
2017-02-27T00:12:15.817Z,57.98
2017-02-27T00:18:15.747Z,58.17
2017-02-27T00:24:06.982Z,58.17
2017-02-27T00:31:19.451Z,57.5
2017-02-27T00:37:09.692Z,57.79
2017-02-27T00:43:08.096Z,57.79
2017-02-27T00:49:24.071Z,57.5
2017-02-27T00:55:14.252Z,57.31
2017-02-27T01:00:37.295Z,57.31
2017-02-27T01:06:28.496Z,57.4
2017-02-27T01:11:44.013Z,57.02
2017-02-27T01:17:34.331Z,56.92
2017-02-27T01:23:24.571Z,57.02
2017-02-27T01:29:14.819Z,57.12
2017-02-27T01:41:03.468Z,57.12
2017-02-27T01:46:54.829Z,56.63
2017-02-27T01:53:00.268Z,56.92
2017-02-27T01:58:50.492Z,56.82
2017-02-27T02:04:41.762Z,56.05
2017-02-27T02:10:44.171Z,56.25
2017-02-27T02:16:34.388Z,56.63
2017-02-27T02:22:24.621Z,56.25
2017-02-27T02:28:27.128Z,56.15
2017-02-27T02:33:42.674Z,56.25
2017-02-27T02:39:33.108Z,56.15
2017-02-27T02:44:59.311Z,56.35
2017-02-27T02:45:44.327Z,56.35
2017-02-27T02:51:34.582Z,55.96
2017-02-27T02:57:33.062Z,55.77
2017-02-27T03:02:48.574Z,55.96
2017-02-27T03:08:38.845Z,56.05
2017-02-27T03:14:29.057Z,55.77
2017-02-27T03:19:44.578Z,56.05
2017-02-27T03:25:35.178Z,55.77
2017-02-27T03:31:42.909Z,55.67
2017-02-27T03:36:58.428Z,55.77
2017-02-27T03:42:56.169Z,55.67
2017-02-27T03:48:11.714Z,55.57
2017-02-27T03:54:01.932Z,55.87
2017-02-27T04:00:11.043Z,55.96
2017-02-27T04:05:26.588Z,55.29
2017-02-27T04:11:16.849Z,55.48
2017-02-27T04:17:07.063Z,55.38
2017-02-27T04:22:22.579Z,55.57
2017-02-27T04:27:46.140Z,55.67
2017-02-27T04:33:37.350Z,55.19
2017-02-27T04:39:37.333Z,55.29
2017-02-27T04:45:35.302Z,55.29
2017-02-27T04:50:58.485Z,55
2017-02-27T04:56:48.745Z,54.8
2017-02-27T05:02:38.954Z,54.9
2017-02-27T05:07:54.568Z,55.48
2017-02-27T05:13:54.145Z,55.38
2017-02-27T05:19:44.393Z,54.8
2017-02-27T05:25:45.247Z,55.48
2017-02-27T05:31:36.499Z,54.61
2017-02-27T05:37:35.253Z,54.8
2017-02-27T05:43:26.511Z,54.8
2017-02-27T05:49:16.725Z,54.71
2017-02-27T05:54:32.260Z,54.71
2017-02-27T06:00:32.701Z,54.71
2017-02-27T06:05:48.008Z,55.09
2017-02-27T06:11:38.270Z,54.71
2017-02-27T06:17:01.600Z,54.52
2017-02-27T06:22:17.337Z,54.8
2017-02-27T06:28:08.567Z,54.42
2017-02-27T06:34:10.961Z,54.42
2017-02-27T06:39:33.701Z,54.52
2017-02-27T06:45:23.929Z,54.71
2017-02-27T06:50:39.510Z,54.13
2017-02-27T06:55:55.101Z,54.32
2017-02-27T07:02:02.364Z,54.52
2017-02-27T07:07:52.599Z,53.94
2017-02-27T07:13:53.567Z,54.13
2017-02-27T07:19:09.082Z,53.94
2017-02-27T07:24:24.685Z,53.94
2017-02-27T07:30:31.007Z,53.74
2017-02-27T07:36:36.528Z,53.36
2017-02-27T07:41:52.033Z,53.65
2017-02-27T07:47:51.575Z,53.36
2017-02-27T07:53:41.797Z,53.27
2017-02-27T07:59:43.349Z,51.24
2017-02-27T08:05:42.158Z,51.43
2017-02-27T08:10:57.664Z,53.07
2017-02-27T08:17:07.210Z,51.05
2017-02-27T08:23:07.233Z,50.27
2017-02-27T08:28:57.479Z,50.85
2017-02-27T08:34:13.103Z,52.01
2017-02-27T08:39:28.618Z,50.66
2017-02-27T08:44:44.195Z,50.85
2017-02-27T08:49:59.719Z,51.43
2017-02-27T08:55:15.292Z,51.92
2017-02-27T09:00:30.854Z,51.92
2017-02-27T09:05:46.497Z,51.53
2017-02-27T09:11:02.019Z,52.4
2017-02-27T09:16:17.585Z,52.69
2017-02-27T09:21:33.116Z,51.62
2017-02-27T09:26:48.706Z,50.49
2017-02-27T09:32:48.942Z,50.69
2017-02-27T09:38:38.644Z,51.46
2017-02-27T09:44:49.646Z,51.46
2017-02-27T09:51:06.221Z,52.71
2017-02-27T09:57:06.214Z,53.67
2017-02-27T09:58:27.986Z,53.67
2017-02-27T10:04:37.624Z,53.67
2017-02-27T10:10:35.544Z,53.96
2017-02-27T10:13:25.715Z,54.06
2017-02-27T10:19:26.845Z,54.8
2017-02-27T10:26:17.101Z,53.39
2017-02-27T10:32:20.812Z,53.48
2017-02-27T10:39:15.472Z,52.81
2017-02-27T10:47:03.192Z,52.71
2017-02-27T10:53:11.717Z,53.45
2017-02-27T10:59:14.322Z,53.55
2017-02-27T11:05:15.994Z,53.58
2017-02-27T11:11:25.917Z,53.29
2017-02-27T11:17:26.553Z,53.19
2017-02-27T11:22:42.240Z,52.81
2017-02-27T11:29:17.785Z,52.91
2017-02-27T11:36:02.241Z,53.29
2017-02-27T11:42:23.578Z,53.48
2017-02-27T11:48:43.510Z,52.71
2017-02-27T11:55:19.133Z,53.77
2017-02-27T12:01:09.349Z,54.06
2017-02-27T12:07:10.256Z,53.67
2017-02-27T12:13:10.692Z,54.54
2017-02-27T12:19:30.030Z,54.64
2017-02-27T12:25:21.349Z,54.54
2017-02-27T12:30:36.880Z,55.22
2017-02-27T12:41:33.388Z,54.83
2017-02-27T12:46:48.959Z,55.12
2017-02-27T12:52:04.486Z,55.51
2017-02-27T12:57:20.166Z,54.44
2017-02-27T13:02:35.713Z,55.6
2017-02-27T13:07:51.593Z,55.41
2017-02-27T13:13:43.881Z,55.12
2017-02-27T13:19:43.941Z,56.15
2017-02-27T13:25:33.373Z,55.41
2017-02-27T13:31:23.679Z,54.54
2017-02-27T13:37:23.865Z,55.89
2017-02-27T13:43:14.256Z,55.89
2017-02-27T13:49:24.947Z,56.18
2017-02-27T13:55:29.678Z,55.96
2017-02-27T14:00:51.923Z,56.47
2017-02-27T14:06:07.762Z,56.37
2017-02-27T14:11:25.773Z,56.27
2017-02-27T14:17:27.189Z,57.02
2017-02-27T14:22:45.152Z,56.76
2017-02-27T14:28:02.072Z,56.47
2017-02-27T14:33:17.649Z,56.76
2017-02-27T14:38:36.737Z,55.99
2017-02-27T14:43:52.236Z,55.99
2017-02-27T14:49:09.559Z,56.57
2017-02-27T14:55:27.367Z,56.18
2017-02-27T15:01:17.673Z,56.85
2017-02-27T15:06:48.734Z,56.85
2017-02-27T15:12:41.651Z,57.05
2017-02-27T15:17:58.340Z,56.76
2017-02-27T15:23:26.992Z,56.85
2017-02-27T15:29:18.243Z,56.85
2017-02-27T15:35:08.513Z,55.99
2017-02-27T15:40:24.049Z,55.89
2017-02-27T15:45:40.587Z,56.27
2017-02-27T15:51:41.212Z,56.85
2017-02-27T15:57:31.536Z,56.95
2017-02-27T16:02:48.386Z,57.92
2017-02-27T16:08:46.833Z,58.2
2017-02-27T16:14:47.637Z,58.3
2017-02-27T16:20:50.326Z,58.04
2017-02-27T16:28:08.738Z,59.07
2017-02-27T16:33:58.107Z,58.97
2017-02-27T16:39:51.016Z,59.17
2017-02-27T16:46:06.227Z,58.49
2017-02-27T16:51:57.107Z,58.69
2017-02-27T16:57:48.488Z,58.11
2017-02-27T17:03:50.293Z,58.97
2017-02-27T17:09:43.107Z,58.3
2017-02-27T17:15:34.300Z,59.07
2017-02-27T17:21:33.262Z,58.78
2017-02-27T17:26:50.009Z,58.97
2017-02-27T17:33:16.041Z,58.78
2017-02-27T17:45:38.736Z,59.27
2017-02-27T17:51:57.190Z,59.65
2017-02-27T17:58:20.732Z,59.45
2017-02-27T18:04:58.073Z,59.65
2017-02-27T18:06:52.234Z,59.65
2017-02-27T18:08:32.044Z,58.78
2017-02-27T18:14:26.688Z,59.17
2017-02-27T18:19:51.423Z,59.84
2017-02-27T18:25:40.835Z,60.52
2017-02-27T18:31:44.971Z,59.07
2017-02-27T18:37:11.821Z,58.88
2017-02-27T18:43:11.025Z,59.65
2017-02-27T18:48:27.568Z,60.03
2017-02-27T18:49:13.206Z,60.03
2017-02-27T18:55:05.354Z,60.32
2017-02-27T19:01:00.063Z,60.32
2017-02-27T19:06:16.317Z,60.23
2017-02-27T19:12:08.132Z,60.42
2017-02-27T19:18:01.623Z,60.32
2017-02-27T19:23:54.268Z,60.61
2017-02-27T19:29:44.616Z,60.71
2017-02-27T19:35:33.895Z,60.61
2017-02-27T19:40:49.520Z,60.9
2017-02-27T19:46:42.568Z,61.19
2017-02-27T19:51:58.155Z,61.1
2017-02-27T19:57:13.778Z,61
2017-02-27T20:03:05.001Z,61.55
2017-02-27T20:08:55.240Z,62.41
2017-02-27T20:14:10.809Z,62.51
2017-02-27T20:19:26.350Z,62.7
2017-02-27T20:24:42.001Z,62.9
2017-02-27T20:29:58.479Z,62.6
2017-02-27T20:35:49.737Z,63.09
2017-02-27T20:41:05.314Z,62.41
2017-02-27T20:46:56.211Z,62.22
2017-02-27T20:52:11.768Z,62.22
2017-02-27T20:57:27.431Z,63.09
2017-02-27T21:02:42.975Z,62.22
2017-02-27T21:08:43.555Z,62.06
2017-02-27T21:14:37.594Z,62.93
2017-02-27T21:20:30.142Z,62.06
2017-02-27T21:26:21.571Z,63.18
2017-02-27T21:31:37.048Z,62.63
2017-02-27T21:36:52.654Z,61.1
2017-02-27T21:42:42.926Z,61.19
2017-02-27T21:47:58.473Z,60.13
2017-02-27T21:53:14.012Z,62.93
2017-02-27T21:59:04.266Z,63.79
2017-02-27T22:05:00.224Z,60.9
2017-02-27T22:10:51.404Z,60.58
2017-02-27T22:16:06.954Z,60.2
2017-02-27T22:21:58.173Z,59.52
2017-02-27T22:28:09.223Z,59.91
2017-02-27T22:34:01.486Z,60
2017-02-27T22:39:52.639Z,59.52
2017-02-27T22:45:44.552Z,59.91
2017-02-27T22:51:07.779Z,59.52
2017-02-27T22:56:59.140Z,59.62
2017-02-27T23:02:57.792Z,58.95
2017-02-27T23:08:13.357Z,59.14
2017-02-27T23:13:28.879Z,59.14
2017-02-27T23:18:45.445Z,59.04
2017-02-27T23:24:37.343Z,57.79
2017-02-27T23:30:27.736Z,56.95
2017-02-27T23:36:19.115Z,56.66
2017-02-27T23:42:13.613Z,56.27
2017-02-27T23:48:03.896Z,56.18
2017-02-27T23:53:54.063Z,55.79
2017-02-27T23:59:09.582Z,55.51
